createdAt,value
2022-08-19T00:02:00.348Z,11.48
2022-08-19T00:04:33.700Z,13.60
2022-08-19T00:07:03.089Z,12.45
2022-08-19T00:09:31.323Z,10.95
2022-08-19T00:12:00.083Z,10.70
2022-08-19T00:14:32.336Z,12.07
2022-08-19T00:17:01.929Z,10.43
2022-08-19T00:19:30.279Z,11.07
2022-08-19T00:21:58.141Z,10.00
2022-08-19T00:24:29.694Z,12.55
2022-08-19T00:27:05.079Z,12.23
2022-08-19T00:29:46.656Z,11.25
2022-08-19T00:32:21.224Z,11.60
2022-08-19T00:34:49.037Z,12.98
2022-08-19T00:37:16.883Z,13.43
2022-08-19T00:39:46.133Z,12.68
2022-08-19T00:42:17.448Z,12.00
2022-08-19T00:44:45.526Z,11.93
2022-08-19T00:47:14.423Z,12.13
2022-08-19T00:49:51.649Z,12.45
2022-08-19T00:52:29.823Z,11.25
2022-08-19T00:55:01.051Z,12.40
2022-08-19T00:57:36.884Z,13.73
2022-08-19T01:00:09.710Z,14.10
2022-08-19T01:02:37.696Z,11.95
2022-08-19T01:05:12.665Z,13.30
2022-08-19T01:07:42.168Z,13.70
2022-08-19T01:10:19.399Z,13.35
2022-08-19T01:12:48.863Z,12.95
2022-08-19T01:15:22.978Z,12.90
2022-08-19T01:17:53.525Z,13.35
2022-08-19T01:20:24.356Z,13.02
2022-08-19T01:22:56.441Z,12.30
2022-08-19T01:25:32.888Z,13.35
2022-08-19T01:28:10.612Z,13.30
2022-08-19T01:30:39.796Z,13.77
2022-08-19T01:33:13.242Z,11.65
2022-08-19T01:35:42.773Z,13.57
2022-08-19T01:38:22.682Z,13.75
2022-08-19T01:40:50.542Z,13.52
2022-08-19T01:43:19.928Z,12.30
2022-08-19T01:45:48.519Z,12.27
2022-08-19T01:48:16.575Z,11.13
2022-08-19T01:50:44.682Z,10.85
2022-08-19T01:53:14.235Z,12.43
2022-08-19T01:55:45.242Z,12.30
2022-08-19T01:58:19.678Z,12.90
2022-08-19T02:00:47.800Z,11.55
2022-08-19T02:03:16.955Z,11.70
2022-08-19T02:05:46.659Z,10.88
2022-08-19T02:08:15.808Z,11.18
2022-08-19T02:10:45.781Z,12.05
2022-08-19T02:13:15.298Z,11.80
2022-08-19T02:15:43.888Z,12.20
2022-08-19T02:18:11.855Z,10.95
2022-08-19T02:20:41.756Z,10.32
2022-08-19T02:23:13.907Z,11.50
2022-08-19T02:25:47.972Z,10.85
2022-08-19T02:28:18.724Z,10.73
2022-08-19T02:30:49.332Z,10.35
2022-08-19T02:33:18.348Z,10.88
2022-08-19T02:35:47.750Z,13.65
2022-08-19T02:38:29.097Z,10.95
2022-08-19T02:41:01.990Z,10.70
2022-08-19T02:43:34.467Z,10.48
2022-08-19T02:46:03.943Z,11.45
2022-08-19T02:48:33.754Z,12.38
2022-08-19T02:51:01.729Z,13.35
2022-08-19T02:53:30.619Z,13.32
2022-08-19T02:55:59.951Z,16.45
2022-08-19T02:58:28.542Z,12.35
2022-08-19T03:00:58.623Z,13.93
2022-08-19T03:03:26.780Z,14.88
2022-08-19T03:06:05.497Z,14.20
2022-08-19T03:08:33.544Z,15.77
2022-08-19T03:11:02.721Z,14.98
2022-08-19T03:13:30.678Z,14.52
2022-08-19T03:15:58.974Z,15.35
2022-08-19T03:18:26.924Z,16.17
2022-08-19T03:20:55.928Z,16.75
2022-08-19T03:23:24.609Z,15.50
2022-08-19T03:26:03.875Z,16.73
2022-08-19T03:28:51.118Z,15.65
2022-08-19T03:31:43.282Z,19.40
2022-08-19T03:34:12.605Z,18.42
2022-08-19T03:36:42.196Z,17.45
2022-08-19T03:39:11.637Z,19.70
2022-08-19T03:41:44.392Z,18.92
2022-08-19T03:44:18.064Z,17.80
2022-08-19T03:46:48.406Z,17.58
2022-08-19T03:49:18.337Z,18.40
2022-08-19T03:51:48.972Z,19.08
2022-08-19T03:54:21.064Z,20.88
2022-08-19T03:56:51.291Z,19.33
2022-08-19T03:59:26.847Z,18.23
2022-08-19T04:01:57.025Z,20.23
2022-08-19T04:04:28.976Z,18.58
2022-08-19T04:06:58.697Z,20.08
2022-08-19T04:09:27.903Z,20.50
2022-08-19T04:11:58.808Z,20.38
2022-08-19T04:14:31.535Z,17.92
2022-08-19T04:17:00.823Z,19.73
2022-08-19T04:19:31.637Z,17.73
2022-08-19T04:22:00.221Z,17.88
2022-08-19T04:24:28.473Z,19.40
2022-08-19T04:26:56.871Z,17.80
2022-08-19T04:29:28.093Z,18.02
2022-08-19T04:31:57.650Z,15.90
2022-08-19T04:34:28.169Z,16.65
2022-08-19T04:36:59.213Z,13.60
2022-08-19T04:39:45.073Z,14.13
2022-08-19T04:42:30.758Z,14.95
2022-08-19T04:45:00.840Z,14.00
2022-08-19T04:47:49.345Z,15.57
2022-08-19T04:50:17.534Z,14.98
2022-08-19T04:52:45.354Z,15.85
2022-08-19T04:55:15.120Z,16.40
2022-08-19T04:57:43.304Z,14.80
2022-08-19T05:00:13.974Z,15.70
2022-08-19T05:02:41.874Z,14.90
2022-08-19T05:05:10.544Z,14.18
2022-08-19T05:07:39.112Z,14.35
2022-08-19T05:10:08.112Z,13.55
2022-08-19T05:12:36.542Z,15.55
2022-08-19T05:15:07.941Z,14.60
2022-08-19T05:17:38.901Z,14.85
2022-08-19T05:20:27.217Z,16.10
2022-08-19T05:22:55.323Z,15.93
2022-08-19T05:25:26.219Z,16.13
2022-08-19T05:27:54.020Z,13.90
2022-08-19T05:30:33.597Z,15.02
2022-08-19T05:33:12.222Z,14.82
2022-08-19T05:35:42.074Z,15.55
2022-08-19T05:38:10.340Z,14.30
2022-08-19T05:40:39.570Z,15.20
2022-08-19T05:43:10.045Z,14.55
2022-08-19T05:45:42.949Z,13.93
2022-08-19T05:48:13.345Z,14.73
2022-08-19T05:50:43.066Z,14.65
2022-08-19T05:53:10.957Z,14.23
2022-08-19T05:55:40.582Z,16.15
2022-08-19T05:58:08.905Z,15.25
2022-08-19T06:00:36.927Z,14.13
2022-08-19T06:03:12.743Z,15.85
2022-08-19T06:05:51.800Z,13.40
2022-08-19T06:08:34.448Z,13.98
2022-08-19T06:11:17.923Z,14.10
2022-08-19T06:13:48.529Z,15.68
2022-08-19T06:16:20.539Z,13.95
2022-08-19T06:18:48.479Z,15.75
2022-08-19T06:21:17.633Z,15.00
2022-08-19T06:23:45.813Z,15.45
2022-08-19T06:26:14.833Z,16.58
2022-08-19T06:28:46.006Z,15.68
2022-08-19T06:31:15.571Z,16.67
2022-08-19T06:33:43.987Z,15.50
2022-08-19T06:36:28.117Z,15.75
2022-08-19T06:38:57.847Z,17.73
2022-08-19T06:41:26.406Z,15.63
2022-08-19T06:43:56.365Z,18.02
2022-08-19T06:46:25.629Z,17.58
2022-08-19T06:48:55.326Z,16.48
2022-08-19T06:51:25.825Z,15.90
2022-08-19T06:53:58.094Z,16.10
2022-08-19T06:56:32.026Z,17.20
2022-08-19T06:59:00.050Z,16.23
2022-08-19T07:01:28.178Z,17.30
2022-08-19T07:03:56.196Z,18.55
2022-08-19T07:06:44.119Z,19.20
2022-08-19T07:09:18.497Z,15.13
2022-08-19T07:11:48.378Z,17.33
2022-08-19T07:14:19.900Z,17.13
2022-08-19T07:16:50.462Z,16.70
2022-08-19T07:19:20.812Z,16.52
2022-08-19T07:21:53.679Z,18.98
2022-08-19T07:24:24.680Z,18.02
2022-08-19T07:26:54.756Z,18.45
2022-08-19T07:29:25.772Z,19.38
2022-08-19T07:32:00.074Z,18.92
2022-08-19T07:34:31.467Z,19.83
2022-08-19T07:37:00.607Z,19.33
2022-08-19T07:39:33.044Z,19.75
2022-08-19T07:42:07.254Z,19.58
2022-08-19T07:44:35.798Z,18.73
2022-08-19T07:47:05.502Z,17.50
2022-08-19T07:49:33.470Z,20.83
2022-08-19T07:52:08.120Z,19.50
2022-08-19T07:54:39.638Z,16.40
2022-08-19T07:57:08.953Z,19.15
2022-08-19T07:59:37.604Z,18.35
2022-08-19T08:02:06.050Z,19.05
2022-08-19T08:04:51.901Z,17.42
2022-08-19T08:07:38.820Z,17.70
2022-08-19T08:10:12.603Z,19.90
2022-08-19T08:13:08.547Z,16.77
2022-08-19T08:15:42.668Z,17.80
2022-08-19T08:18:11.397Z,20.70
2022-08-19T08:20:39.905Z,19.10
2022-08-19T08:23:26.307Z,21.55
2022-08-19T08:25:58.879Z,21.67
2022-08-19T08:28:30.047Z,18.00
2022-08-19T08:30:59.644Z,18.35
2022-08-19T08:33:33.675Z,22.08
2022-08-19T08:36:03.746Z,22.05
2022-08-19T08:38:39.745Z,18.50
2022-08-19T08:41:20.983Z,17.90
2022-08-19T08:43:52.950Z,21.70
2022-08-19T08:46:31.238Z,19.35
2022-08-19T08:49:09.751Z,18.13
2022-08-19T08:51:47.644Z,19.60
2022-08-19T08:54:22.673Z,21.70
2022-08-19T08:56:55.768Z,19.63
2022-08-19T08:59:33.247Z,19.52
2022-08-19T09:02:02.187Z,18.13
2022-08-19T09:04:30.764Z,18.65
2022-08-19T09:07:34.496Z,18.52
2022-08-19T09:10:17.766Z,18.55
2022-08-19T09:13:09.635Z,18.45
2022-08-19T09:15:47.558Z,16.73
2022-08-19T09:18:19.269Z,18.00
2022-08-19T09:20:48.914Z,17.60
2022-08-19T09:23:16.936Z,17.08
2022-08-19T09:25:46.075Z,16.77
2022-08-19T09:28:22.100Z,16.85
2022-08-19T09:30:53.185Z,21.00
2022-08-19T09:33:21.172Z,18.58
2022-08-19T09:35:53.368Z,17.30
2022-08-19T09:38:22.305Z,17.08
2022-08-19T09:40:51.633Z,18.90
2022-08-19T09:43:27.813Z,17.40
2022-08-19T09:46:02.561Z,15.90
2022-08-19T09:48:30.569Z,15.70
2022-08-19T09:51:05.863Z,28.90
2022-08-19T09:53:33.666Z,16.38
2022-08-19T09:56:04.308Z,16.58
2022-08-19T09:58:32.724Z,15.57
2022-08-19T10:01:04.364Z,16.60
2022-08-19T10:03:35.096Z,15.52
2022-08-19T10:06:14.995Z,15.85
2022-08-19T10:08:50.487Z,16.40
2022-08-19T10:11:28.621Z,15.15
2022-08-19T10:14:07.644Z,15.43
2022-08-19T10:16:39.729Z,16.17
2022-08-19T10:19:07.867Z,15.48
2022-08-19T10:21:36.231Z,17.88
2022-08-19T10:24:07.116Z,17.58
2022-08-19T10:26:42.896Z,18.88
2022-08-19T10:29:10.963Z,18.48
2022-08-19T10:32:01.033Z,18.55
2022-08-19T10:34:28.563Z,18.10
2022-08-19T10:37:01.010Z,18.00
2022-08-19T10:39:31.704Z,17.20
2022-08-19T10:42:11.447Z,16.85
2022-08-19T10:44:39.573Z,16.85
2022-08-19T10:47:21.841Z,17.90
2022-08-19T10:50:12.100Z,18.92
2022-08-19T10:52:50.028Z,18.17
2022-08-19T10:55:39.594Z,18.40
2022-08-19T10:58:14.957Z,23.88
2022-08-19T11:00:44.422Z,17.50
2022-08-19T11:03:12.635Z,18.80
2022-08-19T11:05:42.176Z,15.93
2022-08-19T11:08:18.195Z,17.65
2022-08-19T11:10:54.770Z,18.27
2022-08-19T11:13:25.542Z,17.25
2022-08-19T11:16:05.301Z,17.08
2022-08-19T11:18:37.301Z,17.45
2022-08-19T11:21:15.314Z,16.17
2022-08-19T11:23:43.159Z,16.10
2022-08-19T11:26:11.410Z,16.85
2022-08-19T11:28:40.752Z,15.93
2022-08-19T11:31:13.836Z,15.73
2022-08-19T11:33:42.006Z,14.88
2022-08-19T11:36:16.982Z,16.02
2022-08-19T11:38:45.667Z,14.38
2022-08-19T11:41:13.637Z,14.75
2022-08-19T11:43:43.058Z,14.73
2022-08-19T11:46:15.475Z,14.88
2022-08-19T11:48:44.362Z,13.43
2022-08-19T11:51:16.069Z,16.35
2022-08-19T11:53:44.729Z,13.77
2022-08-19T11:56:13.387Z,14.35
2022-08-19T11:58:44.550Z,13.18
2022-08-19T12:01:16.412Z,13.10
2022-08-19T12:03:45.844Z,13.65
2022-08-19T12:06:20.653Z,13.20
2022-08-19T12:08:49.392Z,13.10
2022-08-19T12:11:17.560Z,13.13
2022-08-19T12:13:47.191Z,12.52
2022-08-19T12:16:18.788Z,13.63
2022-08-19T12:18:48.194Z,12.40
2022-08-19T12:21:17.317Z,12.13
2022-08-19T12:23:47.372Z,12.10
2022-08-19T12:26:15.523Z,11.43
2022-08-19T12:28:43.500Z,10.98
2022-08-19T12:31:13.352Z,12.23
2022-08-19T12:33:42.513Z,13.25
2022-08-19T12:36:14.455Z,11.00
2022-08-19T12:38:43.931Z,11.10
2022-08-19T12:41:16.377Z,11.60
2022-08-19T12:43:44.245Z,11.52
2022-08-19T12:46:15.115Z,11.55
2022-08-19T12:48:45.947Z,10.88
2022-08-19T12:51:19.024Z,11.77
2022-08-19T12:53:47.584Z,12.13
2022-08-19T12:56:22.284Z,11.43
2022-08-19T12:58:52.973Z,11.93
2022-08-19T13:01:23.466Z,12.90
2022-08-19T13:03:53.477Z,12.68
2022-08-19T13:06:23.565Z,12.00
2022-08-19T13:08:53.694Z,12.75
2022-08-19T13:11:26.129Z,12.85
2022-08-19T13:13:56.140Z,13.48
2022-08-19T13:16:25.547Z,13.43
2022-08-19T13:18:53.780Z,13.45
2022-08-19T13:21:24.843Z,13.23
2022-08-19T13:23:54.001Z,13.38
2022-08-19T13:26:22.747Z,14.60
2022-08-19T13:29:09.208Z,14.32
2022-08-19T13:32:00.654Z,14.65
2022-08-19T13:34:33.958Z,14.10
2022-08-19T13:37:03.945Z,13.65
2022-08-19T13:39:33.369Z,13.38
2022-08-19T13:42:02.403Z,12.48
2022-08-19T13:44:31.116Z,13.15
2022-08-19T13:47:07.766Z,12.98
2022-08-19T13:49:37.805Z,12.80
2022-08-19T13:52:06.694Z,13.25
2022-08-19T13:54:34.634Z,13.07
2022-08-19T13:57:02.710Z,12.73
2022-08-19T13:59:30.676Z,13.70
2022-08-19T14:02:00.384Z,13.25
2022-08-19T14:04:29.798Z,12.15
2022-08-19T14:06:58.332Z,13.13
2022-08-19T14:09:26.207Z,12.57
2022-08-19T14:11:54.066Z,13.32
2022-08-19T14:14:22.354Z,12.23
2022-08-19T14:16:52.738Z,13.23
2022-08-19T14:19:20.543Z,12.63
2022-08-19T14:21:49.996Z,12.30
2022-08-19T14:24:17.895Z,12.07
2022-08-19T14:26:45.813Z,12.95
2022-08-19T14:29:13.594Z,11.98
2022-08-19T14:31:43.617Z,11.82
2022-08-19T14:34:13.654Z,11.88
2022-08-19T14:36:42.636Z,12.10
2022-08-19T14:39:12.497Z,11.80
2022-08-19T14:41:43.120Z,12.00
2022-08-19T14:44:13.341Z,12.23
2022-08-19T14:46:42.086Z,12.15
2022-08-19T14:49:17.327Z,12.27
2022-08-19T14:51:46.546Z,12.02
2022-08-19T14:54:15.971Z,11.93
2022-08-19T14:56:44.292Z,12.23
2022-08-19T14:59:12.324Z,12.80
2022-08-19T15:01:40.189Z,10.75
2022-08-19T15:04:08.185Z,11.00
2022-08-19T15:06:36.156Z,11.55
2022-08-19T15:09:04.985Z,10.95
2022-08-19T15:11:35.038Z,10.95
2022-08-19T15:14:03.274Z,11.45
2022-08-19T15:16:31.275Z,10.75
2022-08-19T15:19:01.091Z,11.10
2022-08-19T15:21:31.325Z,10.38
2022-08-19T15:24:01.530Z,10.07
2022-08-19T15:26:33.176Z,9.98
2022-08-19T15:29:03.237Z,10.02
2022-08-19T15:31:35.070Z,9.95
2022-08-19T15:34:06.735Z,10.25
2022-08-19T15:36:35.165Z,10.25
2022-08-19T15:39:05.306Z,9.80
2022-08-19T15:41:34.446Z,9.73
2022-08-19T15:44:10.016Z,9.52
2022-08-19T15:46:41.098Z,9.27
2022-08-19T15:49:10.986Z,9.45
2022-08-19T15:51:41.908Z,9.80
2022-08-19T15:54:13.500Z,10.73
2022-08-19T15:57:01.339Z,10.15
2022-08-19T15:59:47.907Z,10.50
2022-08-19T16:02:37.181Z,10.27
2022-08-19T16:05:26.702Z,10.60
2022-08-19T16:07:55.601Z,11.05
2022-08-19T16:10:27.199Z,9.95
2022-08-19T16:12:57.401Z,11.98
2022-08-19T16:15:28.318Z,10.43
2022-08-19T16:17:57.834Z,10.82
2022-08-19T16:20:28.034Z,9.82
2022-08-19T16:22:58.143Z,9.75
2022-08-19T16:25:29.000Z,9.82
2022-08-19T16:28:07.347Z,9.77
2022-08-19T16:30:40.713Z,9.23
2022-08-19T16:33:09.769Z,10.70
2022-08-19T16:35:38.637Z,10.45
2022-08-19T16:38:06.811Z,9.77
2022-08-19T16:40:35.878Z,10.13
2022-08-19T16:43:04.509Z,10.82
2022-08-19T16:45:32.429Z,9.35
2022-08-19T16:48:01.664Z,9.55
2022-08-19T16:50:48.371Z,9.48
2022-08-19T16:53:19.033Z,9.93
2022-08-19T16:55:50.661Z,8.93
2022-08-19T16:58:19.218Z,9.43
2022-08-19T17:00:48.470Z,8.88
2022-08-19T17:03:19.690Z,8.50
2022-08-19T17:06:03.568Z,8.00
2022-08-19T17:08:34.230Z,8.07
2022-08-19T17:11:17.739Z,8.23
2022-08-19T17:13:47.698Z,7.90
2022-08-19T17:16:16.886Z,7.03
2022-08-19T17:18:46.345Z,7.72
2022-08-19T17:21:14.310Z,7.65
2022-08-19T17:23:43.958Z,7.55
2022-08-19T17:26:16.774Z,7.35
2022-08-19T17:28:49.649Z,7.43
2022-08-19T17:31:21.231Z,8.15
2022-08-19T17:33:51.577Z,6.45
2022-08-19T17:36:23.302Z,7.25
2022-08-19T17:38:52.237Z,6.32
2022-08-19T17:41:20.221Z,7.25
2022-08-19T17:43:48.162Z,6.80
2022-08-19T17:46:18.750Z,5.97
2022-08-19T17:48:52.746Z,5.97
2022-08-19T17:51:27.525Z,6.93
2022-08-19T17:53:55.979Z,6.85
2022-08-19T17:56:24.808Z,7.35
2022-08-19T17:59:00.105Z,6.72
2022-08-19T18:01:40.276Z,6.75
2022-08-19T18:04:20.322Z,7.65
2022-08-19T18:06:53.588Z,6.50
2022-08-19T18:09:27.301Z,6.63
2022-08-19T18:11:57.758Z,7.28
2022-08-19T18:14:33.935Z,6.60
2022-08-19T18:17:09.125Z,6.43
2022-08-19T18:19:43.086Z,6.93
2022-08-19T18:22:13.788Z,7.93
2022-08-19T18:24:42.902Z,6.50
2022-08-19T18:27:14.345Z,6.63
2022-08-19T18:29:43.289Z,7.65
2022-08-19T18:32:14.845Z,6.90
2022-08-19T18:34:45.809Z,6.75
2022-08-19T18:37:14.305Z,6.80
2022-08-19T18:39:59.473Z,7.07
2022-08-19T18:42:44.962Z,7.45
2022-08-19T18:45:30.922Z,7.30
2022-08-19T18:48:26.893Z,8.55
2022-08-19T18:50:58.020Z,8.27
2022-08-19T18:53:29.149Z,7.55
2022-08-19T18:55:58.065Z,7.63
2022-08-19T18:58:33.864Z,8.32
2022-08-19T19:01:11.292Z,7.95
2022-08-19T19:03:43.106Z,9.57
2022-08-19T19:06:13.897Z,9.02
2022-08-19T19:08:41.965Z,11.18
2022-08-19T19:11:10.442Z,10.40
2022-08-19T19:13:41.019Z,9.95
2022-08-19T19:16:11.496Z,11.85
2022-08-19T19:18:39.949Z,8.57
2022-08-19T19:21:08.703Z,12.32
2022-08-19T19:23:40.769Z,13.82
2022-08-19T19:26:10.423Z,10.50
2022-08-19T19:28:43.895Z,11.00
2022-08-19T19:31:15.565Z,12.57
2022-08-19T19:33:45.236Z,10.13
2022-08-19T19:36:13.963Z,11.18
2022-08-19T19:38:48.873Z,13.88
2022-08-19T19:41:20.963Z,11.48
2022-08-19T19:43:56.778Z,17.65
2022-08-19T19:46:38.677Z,17.85
2022-08-19T19:49:07.384Z,16.35
2022-08-19T19:51:37.770Z,19.13
2022-08-19T19:54:08.302Z,13.98
2022-08-19T19:56:36.252Z,13.15
2022-08-19T19:59:04.321Z,15.82
2022-08-19T20:01:32.440Z,15.07
2022-08-19T20:04:02.144Z,12.40
2022-08-19T20:06:31.037Z,17.33
2022-08-19T20:09:10.489Z,14.73
2022-08-19T20:11:44.692Z,14.82
2022-08-19T20:14:16.278Z,15.77
2022-08-19T20:16:46.329Z,16.10
2022-08-19T20:19:18.671Z,13.25
2022-08-19T20:21:51.334Z,13.88
2022-08-19T20:24:24.897Z,18.95
2022-08-19T20:26:54.694Z,15.70
2022-08-19T20:29:38.014Z,18.25
2022-08-19T20:32:07.900Z,14.45
2022-08-19T20:34:35.877Z,19.13
2022-08-19T20:37:03.985Z,18.77
2022-08-19T20:39:32.091Z,16.40
2022-08-19T20:42:01.419Z,21.42
2022-08-19T20:44:29.326Z,20.23
2022-08-19T20:47:01.684Z,16.98
2022-08-19T20:49:31.057Z,16.48
2022-08-19T20:51:59.354Z,16.65
2022-08-19T20:54:27.592Z,18.10
2022-08-19T20:56:56.199Z,23.17
2022-08-19T20:59:25.848Z,18.83
2022-08-19T21:01:54.302Z,16.63
2022-08-19T21:04:23.203Z,14.90
2022-08-19T21:06:51.809Z,14.27
2022-08-19T21:09:19.825Z,22.13
2022-08-19T21:11:48.096Z,16.10
2022-08-19T21:14:16.349Z,18.90
2022-08-19T21:16:46.199Z,15.60
2022-08-19T21:19:14.218Z,16.63
2022-08-19T21:21:42.059Z,22.10
2022-08-19T21:24:10.517Z,21.23
2022-08-19T21:26:38.659Z,20.20
2022-08-19T21:29:06.948Z,19.42
2022-08-19T21:31:35.171Z,14.35
2022-08-19T21:34:05.327Z,15.32
2022-08-19T21:36:33.150Z,13.52
2022-08-19T21:39:00.970Z,14.85
2022-08-19T21:41:28.880Z,15.73
2022-08-19T21:43:56.851Z,15.25
2022-08-19T21:46:24.769Z,15.65
2022-08-19T21:48:52.585Z,14.80
2022-08-19T21:51:21.785Z,17.85
2022-08-19T21:53:49.786Z,14.23
2022-08-19T21:56:21.350Z,16.00
2022-08-19T21:58:49.268Z,15.23
2022-08-19T22:01:18.063Z,19.10
2022-08-19T22:03:45.900Z,13.50
2022-08-19T22:06:13.723Z,12.25
2022-08-19T22:08:44.771Z,14.38
2022-08-19T22:11:13.169Z,20.92
2022-08-19T22:13:41.752Z,14.82
2022-08-19T22:16:11.103Z,19.08
2022-08-19T22:18:39.245Z,14.15
2022-08-19T22:21:11.652Z,16.63
2022-08-19T22:23:42.369Z,15.10
2022-08-19T22:26:10.818Z,14.32
2022-08-19T22:28:39.555Z,13.60
2022-08-19T22:31:08.146Z,16.70
2022-08-19T22:33:36.892Z,12.15
2022-08-19T22:36:07.468Z,16.95
2022-08-19T22:38:35.878Z,17.30
2022-08-19T22:41:07.833Z,15.25
2022-08-19T22:43:36.866Z,18.90
2022-08-19T22:46:06.421Z,14.57
2022-08-19T22:48:46.410Z,15.32
2022-08-19T22:51:32.253Z,15.48
2022-08-19T22:54:00.409Z,13.20
2022-08-19T22:56:31.789Z,13.02
2022-08-19T22:58:59.915Z,16.55
2022-08-19T23:01:30.282Z,14.27
2022-08-19T23:04:00.205Z,14.43
2022-08-19T23:06:33.538Z,14.80
2022-08-19T23:09:04.836Z,11.52
2022-08-19T23:11:35.825Z,12.25
2022-08-19T23:14:10.361Z,14.05
2022-08-19T23:16:41.652Z,14.80
2022-08-19T23:19:10.889Z,13.13
2022-08-19T23:21:38.960Z,12.50
2022-08-19T23:24:07.504Z,14.50
2022-08-19T23:26:37.004Z,12.50
2022-08-19T23:29:24.208Z,12.90
2022-08-19T23:31:52.115Z,13.27
2022-08-19T23:34:20.023Z,13.85
2022-08-19T23:36:48.326Z,12.02
2022-08-19T23:39:16.235Z,11.73
2022-08-19T23:41:45.371Z,12.68
2022-08-19T23:44:14.777Z,12.32
2022-08-19T23:46:54.702Z,12.77
2022-08-19T23:49:25.374Z,13.50
2022-08-19T23:51:54.867Z,14.80
2022-08-19T23:54:23.280Z,12.15
2022-08-19T23:57:03.573Z,14.63
2022-08-19T23:59:42.453Z,13.55
